Gales Creek, Oregon
Current Conditions -  °F | °C
As of 6:53 AM on Friday 28 Nov 2014 (Local Time) from KHIO Reporting Station
Light Rain Light Rain  
Wind Chill: 52°   Ceiling: 900
Heat Index: 52°   Visibility: 10mi
Dew Point: 51°   Wind: 13mph
Humidity: 97%   Direction: 170°S
Pressure: 29.64"   Gusts: NA
Location:  45.59°N, 123.21°W
Report Text: KHIO 281453Z 17011KT 10SM -RA BKN009 OVC038 11/11 A2964 RMK AO2 RAB1354 SLP037 P0000 60007 T01110106 56024
Loading
Personal Weather Stations






























Interactive Weather Map New forecast layout! Learn more

10-Day Weather Forecast

Advertisements
Track Severe Weather on mobile